Rutland, ND (58067)

5:28 AM CDT on October 01, 2014 (GMT -0500)
Gwinner-melroe | Change Station
CLOSE
Current Station
Airport
Location: Gwinner,
Elevation: 1266 ft
Nearby Weather Stations

Elev 1266 ft 46.22 °N, 97.64 °W | Updated 13 minutes ago

Clear
Clear
57 °F
Feels Like 57 °F
N
10
Wind Variable Wind from SSW
Gusts 14 mph

Today
High -- | Low -- °F
--% Chance of Precip.
Yesterday
High -- | Low -- °F
Precip. -- in
7:28 AM 7:09 PM
Waxing Crescent, 46% visible
Pressure 29.64 in
Visibility -9999.0 miles
Clouds
Dew Point 54 °F
Humidity 88%
Rainfall 0.00 in
Snow Depth Not available.
UV Not available.
Pollen .80 out of 12
Air Quality Not available.
Flu Activity Not available.
METAR KGWR 011015Z AUTO 21009KT 14/12 A2964 RMK A01 P000

More Conditions Fewer Conditions

Pressure 29.64 in
Visibility -9999.0 miles
Clouds
Dew Point 54 °F
Humidity 88%
Rainfall 0.00 in
Snow Depth Not available.
UV Not available.
Pollen .80 out of 12
Air Quality Not available.
Flu Activity Not available.
METAR KGWR 011015Z AUTO 21009KT 14/12 A2964 RMK A01 P000

More Conditions Fewer Conditions

10-Day Weather Forecast

Almanac

Astronomy

Oct. 01, 2014 Rise Set
Actual Time 7:28 AM CDT 7:09 PM CDT
Civil Twilight 6:58 AM CDT 7:39 PM CDT
Nautical Twilight 6:23 AM CDT 8:14 PM CDT
Astronomical Twilight 5:48 AM CDT 8:49 PM CDT
Moon 2:44 PM CDT No Moon Set
Length of Visible Light 12h 41m
Length of Day
11h 41m
Tomorrow will be 3m 14s shorter.
Waxing Crescent, 46% of the Moon is Illuminated
Today
Waxing Crescent
Oct 1
First Quarter
Oct 8
Full
Oct 15
Last Quarter
Oct 23
New

Today's Extremes

State Highs State Lows

Community

WunderPhotos

Upload Photos

1,757,905 photos uploaded!

WunderBlogs® & News

Nearby

Snow Depth

Station Depth Elevation
No new snow has been reported.

Earthquake Activity

City Distance Mag. Time & Date
No recent earthquake activity has been reported nearby.
Minimum magnitude displayed is 2.5.

Coastal Water Temperatures

Place Temperature
No Stations Reporting

Nearby Weather Stations